Time;durP1;ratioP1;P1;durP2;ratioP2;P2;SDS_P1;SDS_P2;PMS_P1;PMS_P2;Temp;Humidity;BMP_temperature;BMP_pressure;BME280_temperature;BME280_humidity;BME280_pressure;Samples;Min_cycle;Max_cycle;Signal;HPM_P1;HPM_P2
2023/05/22 00:01:07;;;;;;;19.60;16.75;;;;;;;17.71;100.00;101406.50;5280356;28;20051;-68
2023/05/22 00:03:39;;;;;;;19.63;16.48;;;;;;;17.72;100.00;101410.00;5279564;28;20060;-68
2023/05/22 00:06:10;;;;;;;20.75;15.63;;;;;;;17.80;100.00;101404.72;5279845;28;20531;-68
2023/05/22 00:08:42;;;;;;;18.02;16.17;;;;;;;17.78;100.00;101400.59;5279378;28;20028;-68
2023/05/22 00:11:13;;;;;;;20.90;16.10;;;;;;;17.69;100.00;101394.41;5276285;28;20036;-68
2023/05/22 00:13:45;;;;;;;17.88;15.93;;;;;;;17.70;100.00;101393.44;5280113;28;20025;-68
2023/05/22 00:16:16;;;;;;;18.88;16.55;;;;;;;17.62;100.00;101391.59;5279275;28;20047;-68
2023/05/22 00:18:48;;;;;;;20.20;16.73;;;;;;;17.54;100.00;101386.28;5279179;28;20437;-68
2023/05/22 00:21:19;;;;;;;23.23;18.17;;;;;;;17.58;100.00;101395.56;5277413;28;20040;-68
2023/05/22 00:23:51;;;;;;;20.02;17.88;;;;;;;17.57;100.00;101399.19;5278537;28;20055;-68
2023/05/22 00:26:22;;;;;;;19.58;17.33;;;;;;;17.43;100.00;101394.53;5279825;28;20115;-68
2023/05/22 00:28:54;;;;;;;20.08;17.27;;;;;;;17.54;100.00;101393.38;5278611;28;20024;-68
2023/05/22 00:31:25;;;;;;;21.55;17.88;;;;;;;17.44;100.00;101391.72;5277942;28;20032;-68
2023/05/22 00:33:57;;;;;;;18.60;16.63;;;;;;;17.41;100.00;101388.56;5279136;28;20020;-68
2023/05/22 00:36:29;;;;;;;19.43;16.17;;;;;;;17.45;100.00;101387.25;5279637;28;20485;-68
2023/05/22 00:39:00;;;;;;;20.02;17.17;;;;;;;17.34;100.00;101382.25;5279036;28;20262;-68
2023/05/22 00:41:32;;;;;;;20.13;16.77;;;;;;;17.27;100.00;101369.69;5278329;28;20055;-68
2023/05/22 00:44:04;;;;;;;17.83;15.65;;;;;;;17.25;100.00;101384.06;5279419;28;20078;-68
2023/05/22 00:46:35;;;;;;;19.55;16.75;;;;;;;17.21;100.00;101388.84;5278409;28;20474;-68
2023/05/22 00:49:07;;;;;;;20.40;16.92;;;;;;;17.13;100.00;101380.88;5279032;28;20082;-68
2023/05/22 00:51:38;;;;;;;17.65;15.75;;;;;;;17.29;100.00;101380.09;5276910;28;20112;-68
2023/05/22 00:54:11;;;;;;;17.90;16.13;;;;;;;17.32;100.00;101384.25;5278538;28;20029;-68
2023/05/22 00:56:43;;;;;;;19.25;17.00;;;;;;;17.19;100.00;101384.69;5277512;28;20040;-68
2023/05/22 00:59:15;;;;;;;17.38;15.57;;;;;;;17.22;100.00;101377.25;5278747;28;20058;-68
2023/05/22 01:01:47;;;;;;;18.30;16.13;;;;;;;17.10;100.00;101381.19;5277333;28;20029;-68
2023/05/22 01:04:18;;;;;;;23.75;17.90;;;;;;;17.12;100.00;101381.00;5277479;28;20035;-68
2023/05/22 01:06:50;;;;;;;20.05;16.70;;;;;;;17.20;100.00;101397.78;5277764;28;20020;-68
2023/05/22 01:09:21;;;;;;;18.13;16.08;;;;;;;17.10;100.00;101383.00;5277896;28;20016;-68
2023/05/22 01:12:19;;;;;;;20.48;17.40;;;;;;;17.40;100.00;101373.69;5278709;28;20916;-68
2023/05/22 01:15:32;;;;;;;19.23;17.08;;;;;;;17.41;100.00;101383.28;5276944;28;20385;-68
2023/05/22 01:18:18;;;;;;;18.02;16.13;;;;;;;17.10;100.00;101383.84;5277447;28;20028;-68
2023/05/22 01:20:53;;;;;;;19.52;16.63;;;;;;;17.03;100.00;101381.00;5277553;28;20390;-68
2023/05/22 01:23:40;;;;;;;18.33;16.42;;;;;;;17.11;100.00;101376.72;5278172;28;20117;-68
2023/05/22 01:26:21;;;;;;;19.60;16.42;;;;;;;16.95;100.00;101380.13;5277644;28;20020;-68
2023/05/22 01:29:12;;;;;;;17.98;15.70;;;;;;;17.10;100.00;101383.00;5278316;28;20508;-68
2023/05/22 01:31:46;;;;;;;21.35;16.70;;;;;;;16.87;100.00;101390.69;5302096;22;20044;-67
2023/05/22 01:34:19;;;;;;;17.90;16.10;;;;;;;16.75;100.00;101369.78;5292732;28;20016;-67
2023/05/22 01:36:52;;;;;;;;;;;;;;;17.63;100.00;101377.34;5298932;28;20023;-67
2023/05/22 01:39:24;;;;;;;19.30;16.60;;;;;;;16.81;100.00;101375.44;5296901;28;19920;-67
2023/05/22 01:41:56;;;;;;;20.70;16.48;;;;;;;16.70;100.00;101379.97;5297638;28;20031;-67
2023/05/22 01:44:27;;;;;;;18.55;16.25;;;;;;;16.61;100.00;101375.63;5298541;28;20047;-67
2023/05/22 01:47:03;;;;;;;18.50;16.40;;;;;;;16.61;100.00;101380.91;5298077;28;20077;-67
2023/05/22 01:49:35;;;;;;;22.98;17.35;;;;;;;16.53;100.00;101379.06;5292804;28;20496;-67
2023/05/22 01:52:31;;;;;;;21.05;16.50;;;;;;;16.88;100.00;101379.09;5296765;28;20026;-67
2023/05/22 01:55:17;;;;;;;22.55;16.42;;;;;;;16.77;100.00;101377.56;5295450;28;20124;-67
2023/05/22 01:58:01;;;;;;;21.70;17.20;;;;;;;16.70;100.00;101372.03;5296862;28;20028;-67
2023/05/22 02:00:34;;;;;;;20.30;16.50;;;;;;;16.51;100.00;101370.44;5275204;28;20042;-67
2023/05/22 02:03:12;;;;;;;22.20;16.83;;;;;;;16.52;100.00;101368.63;5298125;28;20073;-67
2023/05/22 02:05:45;;;;;;;20.20;16.42;;;;;;;16.53;100.00;101367.66;5279258;28;20489;-67
2023/05/22 02:08:18;;;;;;;20.75;16.55;;;;;;;16.50;100.00;101367.94;5294960;28;20118;-67
2023/05/22 02:10:51;;;;;;;;;;;;;;;17.27;100.00;101367.03;5298268;28;20034;-67
2023/05/22 02:13:22;;;;;;;20.95;16.90;;;;;;;16.40;100.00;101361.91;5297171;28;20120;-67
2023/05/22 02:15:55;;;;;;;19.30;17.30;;;;;;;16.37;100.00;101362.25;5297083;28;20450;-67
2023/05/22 02:18:30;;;;;;;23.98;18.33;;;;;;;16.35;100.00;101356.28;5297456;28;20028;-67
2023/05/22 02:21:02;;;;;;;20.92;16.90;;;;;;;16.32;100.00;101361.88;5297402;28;20034;-67
2023/05/22 02:23:33;;;;;;;22.20;17.80;;;;;;;16.37;100.00;101360.44;5297890;28;20472;-67
2023/05/22 02:26:05;;;;;;;21.75;17.27;;;;;;;16.39;100.00;101370.84;5277493;28;20024;-67
2023/05/22 02:28:36;;;;;;;20.85;18.02;;;;;;;16.26;100.00;101374.75;5277930;28;20113;-67
2023/05/22 02:31:08;;;;;;;24.38;17.80;;;;;;;16.28;100.00;101364.00;5296416;28;20063;-67
2023/05/22 02:33:39;;;;;;;21.83;17.15;;;;;;;16.24;100.00;101350.25;5274053;28;20108;-67
2023/05/22 02:36:11;;;;;;;19.05;16.25;;;;;;;16.30;100.00;101349.66;5296533;28;20024;-67
2023/05/22 02:38:43;;;;;;;20.15;18.08;;;;;;;16.26;100.00;101360.69;5296696;28;20381;-67
2023/05/22 02:41:14;;;;;;;23.45;18.48;;;;;;;16.32;100.00;101353.94;5296197;28;20024;-67
2023/05/22 02:43:45;;;;;;;23.80;17.70;;;;;;;16.25;100.00;101351.09;5296967;28;20035;-67
2023/05/22 02:46:16;;;;;;;23.00;17.92;;;;;;;16.27;100.00;101349.13;5295853;28;20274;-67
2023/05/22 02:48:48;;;;;;;22.63;18.85;;;;;;;16.24;100.00;101346.78;5297615;28;20547;-67
2023/05/22 02:51:19;;;;;;;20.27;17.98;;;;;;;16.37;100.00;101351.69;5294820;28;20486;-67
2023/05/22 02:53:51;;;;;;;21.55;18.33;;;;;;;16.33;100.00;101352.94;5297861;28;20047;-66
2023/05/22 02:56:22;;;;;;;22.97;18.37;;;;;;;16.36;100.00;101347.34;5295070;28;20112;-67
2023/05/22 02:58:55;;;;;;;19.60;16.98;;;;;;;16.36;100.00;101337.59;5296698;28;20115;-67
2023/05/22 03:01:29;;;;;;;24.98;17.88;;;;;;;16.28;100.00;101346.31;5296641;28;20445;-67
2023/05/22 03:04:00;;;;;;;22.40;18.00;;;;;;;16.35;100.00;101341.25;5296543;28;20019;-67
2023/05/22 03:06:33;;;;;;;22.50;17.73;;;;;;;16.23;100.00;101340.66;5295926;28;20504;-66
2023/05/22 03:09:04;;;;;;;25.70;17.42;;;;;;;16.18;100.00;101348.25;5274198;28;20069;-67
2023/05/22 03:11:36;;;;;;;22.67;16.95;;;;;;;16.08;100.00;101350.16;5277989;28;20084;-67
2023/05/22 03:14:07;;;;;;;23.35;17.35;;;;;;;16.13;100.00;101342.56;5295689;28;20024;-67
2023/05/22 03:16:38;;;;;;;22.48;17.60;;;;;;;16.06;100.00;101349.44;5296114;28;20070;-67
2023/05/22 03:19:11;;;;;;;21.92;17.52;;;;;;;16.10;100.00;101336.75;5296757;28;20061;-67
2023/05/22 03:21:47;;;;;;;25.75;18.45;;;;;;;16.01;100.00;101344.63;5296115;28;20042;-66
2023/05/22 03:24:18;;;;;;;24.77;17.92;;;;;;;15.95;100.00;101328.59;5296152;28;20016;-67
2023/05/22 03:26:49;;;;;;;21.63;17.25;;;;;;;15.95;100.00;101334.69;5295274;28;20484;-67
2023/05/22 03:29:21;;;;;;;21.15;17.75;;;;;;;15.85;100.00;101336.59;5296279;28;20027;-67
2023/05/22 03:31:53;;;;;;;21.42;16.63;;;;;;;15.91;100.00;101336.00;5295675;28;20074;-67
2023/05/22 03:34:26;;;;;;;22.20;17.60;;;;;;;15.79;100.00;101331.91;5296434;28;20028;-66
2023/05/22 03:36:57;;;;;;;22.65;17.52;;;;;;;15.84;100.00;101339.41;5295293;28;20028;-66
2023/05/22 03:39:28;;;;;;;24.88;17.70;;;;;;;15.85;100.00;101333.94;5273511;28;20020;-66
2023/05/22 03:42:00;;;;;;;24.92;18.90;;;;;;;15.76;100.00;101326.94;5296022;28;20484;-66
2023/05/22 03:44:31;;;;;;;23.48;16.75;;;;;;;15.78;100.00;101335.53;5295697;28;20485;-66
2023/05/22 03:47:03;;;;;;;24.50;17.27;;;;;;;15.78;100.00;101336.34;5296011;28;20024;-66
2023/05/22 03:49:34;;;;;;;26.17;18.58;;;;;;;15.72;100.00;101341.41;5295962;28;20036;-66
2023/05/22 03:52:08;;;;;;;24.65;18.08;;;;;;;15.77;100.00;101333.88;5295606;28;20480;-66
2023/05/22 03:54:40;;;;;;;26.10;19.25;;;;;;;15.62;100.00;101336.19;5295787;28;20080;-66
2023/05/22 03:57:11;;;;;;;22.15;18.05;;;;;;;15.62;100.00;101330.09;5296128;28;20027;-66
2023/05/22 03:59:42;;;;;;;24.00;18.55;;;;;;;15.74;100.00;101335.00;5294430;28;20020;-66
2023/05/22 04:02:15;;;;;;;25.20;18.65;;;;;;;15.61;100.00;101328.41;5295160;28;20068;-66
2023/05/22 04:04:46;;;;;;;25.67;17.27;;;;;;;15.67;100.00;101330.47;5293431;28;20604;-66
2023/05/22 04:07:19;;;;;;;25.17;18.00;;;;;;;15.70;100.00;101331.00;5295783;28;20032;-66
2023/05/22 04:09:50;;;;;;;24.92;18.13;;;;;;;15.69;100.00;101326.72;5295427;28;20526;-66
2023/05/22 04:12:21;;;;;;;26.42;19.65;;;;;;;15.71;100.00;101316.81;5294887;28;20028;-66
2023/05/22 04:14:52;;;;;;;28.33;18.85;;;;;;;15.58;100.00;101324.28;5295768;28;20024;-66
2023/05/22 04:17:30;;;;;;;28.83;19.60;;;;;;;15.68;100.00;101329.50;5295780;28;20074;-66
2023/05/22 04:20:03;;;;;;;28.98;18.63;;;;;;;15.49;100.00;101327.78;5295587;28;20103;-66
2023/05/22 04:22:35;;;;;;;;;;;;;;;16.34;100.00;101323.72;5295265;28;20123;-66
2023/05/22 04:25:06;;;;;;;24.77;18.67;;;;;;;15.54;100.00;101329.03;5294728;28;19995;-66
2023/05/22 04:27:38;;;;;;;24.13;18.92;;;;;;;15.61;100.00;101336.31;5297381;28;20056;-66
2023/05/22 04:30:09;;;;;;;29.48;19.20;;;;;;;15.68;100.00;101338.28;5296610;28;20044;-66
2023/05/22 04:32:40;;;;;;;23.85;18.98;;;;;;;15.71;100.00;101340.59;5294810;28;20942;-66
2023/05/22 04:35:12;;;;;;;23.13;18.88;;;;;;;15.67;100.00;101338.41;5294466;28;20023;-66
2023/05/22 04:37:46;;;;;;;25.55;18.45;;;;;;;15.67;100.00;101343.69;5298848;28;20097;-66
2023/05/22 04:40:17;;;;;;;24.25;20.77;;;;;;;15.65;100.00;101348.28;5298587;28;20016;-66
2023/05/22 04:42:49;;;;;;;21.10;18.75;;;;;;;15.62;100.00;101346.75;5277555;28;20476;-66
2023/05/22 04:45:24;;;;;;;30.35;20.95;;;;;;;15.65;100.00;101358.84;5299385;28;20475;-66
2023/05/22 04:47:55;;;;;;;23.15;19.83;;;;;;;15.67;100.00;101360.34;5298455;28;20486;-66
2023/05/22 04:50:29;;;;;;;23.42;20.15;;;;;;;15.71;100.00;101358.25;5298071;28;20027;-66
2023/05/22 04:53:02;;;;;;;29.73;20.38;;;;;;;15.77;100.00;101365.59;5298522;28;20450;-66
2023/05/22 04:55:34;;;;;;;28.70;21.05;;;;;;;15.76;100.00;101366.56;5299887;28;20059;-66
2023/05/22 04:58:05;;;;;;;27.63;19.98;;;;;;;15.78;100.00;101369.88;5278622;28;20122;-66
2023/05/22 05:00:36;;;;;;;29.10;21.02;;;;;;;15.79;100.00;101369.72;5299649;28;20024;-66
2023/05/22 05:03:10;;;;;;;30.45;21.10;;;;;;;15.79;100.00;101371.53;5297986;28;20069;-66
2023/05/22 05:05:42;;;;;;;27.90;20.88;;;;;;;15.79;100.00;101374.16;5299311;28;20032;-66
2023/05/22 05:08:13;;;;;;;28.40;20.02;;;;;;;15.77;100.00;101368.22;5298224;28;20024;-66
2023/05/22 05:10:44;;;;;;;26.42;20.52;;;;;;;15.81;100.00;101373.03;5299088;28;20032;-66
2023/05/22 05:13:16;;;;;;;26.67;19.48;;;;;;;15.97;100.00;101382.09;5299203;28;20442;-66
2023/05/22 05:15:47;;;;;;;27.58;20.17;;;;;;;15.97;100.00;101385.56;5298408;28;20482;-66
2023/05/22 05:18:19;;;;;;;26.98;21.73;;;;;;;15.87;100.00;101382.16;5298713;28;21249;-66
2023/05/22 05:20:50;;;;;;;29.60;20.63;;;;;;;15.87;100.00;101383.97;5298383;28;20469;-66
2023/05/22 05:23:21;;;;;;;26.85;20.35;;;;;;;15.93;100.00;101386.03;5298689;28;20031;-66
2023/05/22 05:25:53;;;;;;;31.23;23.92;;;;;;;15.90;100.00;101381.03;5297750;28;20298;-66
2023/05/22 05:28:25;;;;;;;29.05;21.98;;;;;;;15.97;100.00;101385.56;5298663;28;20529;-67
2023/05/22 05:30:56;;;;;;;28.08;21.52;;;;;;;16.09;100.00;101385.34;5297588;28;20174;-66
2023/05/22 05:33:28;;;;;;;29.27;21.17;;;;;;;16.15;100.00;101388.19;5278472;28;20070;-66
2023/05/22 05:35:59;;;;;;;31.83;22.52;;;;;;;16.18;100.00;101382.63;5297964;28;20376;-66
2023/05/22 05:38:30;;;;;;;24.63;20.70;;;;;;;16.18;100.00;101387.91;5299201;28;20030;-66
2023/05/22 05:41:01;;;;;;;30.58;22.98;;;;;;;16.29;100.00;101382.38;5298464;28;20106;-66
2023/05/22 05:43:33;;;;;;;30.85;22.05;;;;;;;16.44;100.00;101387.06;5299629;28;20024;-66
2023/05/22 05:46:04;;;;;;;28.40;21.85;;;;;;;16.35;100.00;101380.91;5297256;28;20024;-66
2023/05/22 05:48:36;;;;;;;32.83;23.13;;;;;;;16.29;100.00;101379.72;5295183;28;20066;-66
2023/05/22 05:51:07;;;;;;;28.88;21.85;;;;;;;16.50;100.00;101381.16;5298174;28;20082;-66
2023/05/22 05:53:41;;;;;;;30.55;22.48;;;;;;;16.43;100.00;101377.50;5297702;28;20024;-66
2023/05/22 05:56:13;;;;;;;29.05;22.25;;;;;;;16.46;100.00;101375.38;5297377;28;20026;-67
2023/05/22 05:58:45;;;;;;;32.87;23.90;;;;;;;16.59;100.00;101382.03;5280234;28;20027;-66
2023/05/22 06:01:17;;;;;;;35.25;23.52;;;;;;;16.62;100.00;101385.22;5298199;28;20058;-66
2023/05/22 06:03:49;;;;;;;33.60;23.70;;;;;;;16.77;100.00;101382.84;5298144;28;20038;-66
2023/05/22 06:06:20;;;;;;;32.40;23.17;;;;;;;16.96;100.00;101395.84;5274931;28;20024;-66
2023/05/22 06:08:52;;;;;;;28.75;22.88;;;;;;;16.88;100.00;101397.63;5297235;28;20034;-67
2023/05/22 06:11:23;;;;;;;30.83;23.15;;;;;;;16.93;100.00;101397.97;5299255;28;20020;-66
2023/05/22 06:13:54;;;;;;;29.25;22.33;;;;;;;17.05;100.00;101398.53;5299993;28;20016;-66
2023/05/22 06:16:25;;;;;;;34.60;24.05;;;;;;;17.09;100.00;101398.06;5273705;28;20039;-66
2023/05/22 06:18:58;;;;;;;29.48;23.60;;;;;;;17.10;100.00;101397.06;5298845;28;20394;-67
2023/05/22 06:21:29;;;;;;;35.38;25.60;;;;;;;17.08;100.00;101406.16;5297875;28;20020;-66
2023/05/22 06:24:01;;;;;;;31.85;24.75;;;;;;;17.12;100.00;101400.41;5297526;28;20024;-66
2023/05/22 06:26:32;;;;;;;31.25;23.52;;;;;;;17.21;100.00;101402.09;5295432;28;20103;-66
2023/05/22 06:29:05;;;;;;;32.88;25.38;;;;;;;17.08;100.00;101408.78;5296769;28;20036;-67
2023/05/22 06:31:37;;;;;;;39.00;24.90;;;;;;;17.19;100.00;101412.00;5297745;28;20278;-66
2023/05/22 06:34:09;;;;;;;31.75;25.75;;;;;;;17.18;100.00;101410.34;5296375;28;20055;-66
2023/05/22 06:36:41;;;;;;;35.33;27.90;;;;;;;17.23;100.00;101408.03;5297319;28;20024;-66
2023/05/22 06:39:12;;;;;;;36.58;27.88;;;;;;;17.21;100.00;101410.03;5296779;28;20130;-66
2023/05/22 06:41:44;;;;;;;40.55;29.50;;;;;;;17.23;100.00;101412.50;5296693;28;20024;-66
2023/05/22 06:44:15;;;;;;;39.95;28.17;;;;;;;17.43;100.00;101415.75;5296425;28;20020;-66
2023/05/22 06:46:48;;;;;;;40.35;30.15;;;;;;;17.47;100.00;101423.19;5296170;28;20052;-67
2023/05/22 06:49:19;;;;;;;41.47;33.72;;;;;;;17.61;100.00;101418.25;5296788;28;20418;-66
2023/05/22 06:51:51;;;;;;;43.92;33.17;;;;;;;17.60;100.00;101411.28;5296045;28;20031;-67
2023/05/22 06:54:22;;;;;;;51.33;33.55;;;;;;;17.59;100.00;101421.06;5297760;28;20496;-66
2023/05/22 06:56:55;;;;;;;48.25;35.60;;;;;;;17.63;100.00;101422.41;5296872;28;20503;-66
2023/05/22 06:59:26;;;;;;;50.35;35.50;;;;;;;17.63;100.00;101418.94;5295662;28;20081;-67
2023/05/22 07:01:57;;;;;;;49.63;37.33;;;;;;;17.73;100.00;101427.56;5295302;28;20028;-67
2023/05/22 07:04:29;;;;;;;52.92;36.42;;;;;;;17.69;100.00;101431.50;5296143;28;20032;-67
2023/05/22 07:07:01;;;;;;;55.67;37.63;;;;;;;17.65;100.00;101435.47;5297169;28;20024;-66
2023/05/22 07:09:33;;;;;;;53.63;38.22;;;;;;;17.75;100.00;101442.34;5295774;28;20511;-66
2023/05/22 07:12:05;;;;;;;53.10;37.92;;;;;;;17.72;100.00;101441.78;5295757;28;20392;-67
2023/05/22 07:14:36;;;;;;;54.63;39.42;;;;;;;17.72;100.00;101450.56;5296629;28;20032;-67
2023/05/22 07:17:08;;;;;;;53.63;39.33;;;;;;;17.91;100.00;101449.47;5296431;28;20032;-67
2023/05/22 07:19:39;;;;;;;54.58;37.60;;;;;;;17.93;100.00;101457.28;5274758;28;20028;-66
2023/05/22 07:22:10;;;;;;;56.42;39.50;;;;;;;17.81;100.00;101450.66;5295610;28;20030;-66
2023/05/22 07:24:42;;;;;;;48.00;37.08;;;;;;;17.83;100.00;101456.59;5297783;28;20603;-67
2023/05/22 07:27:14;;;;;;;54.10;40.08;;;;;;;17.99;100.00;101448.66;5296522;28;20165;-67
2023/05/22 07:29:45;;;;;;;57.30;39.58;;;;;;;18.08;100.00;101455.66;5275210;28;20044;-67
2023/05/22 07:32:16;;;;;;;58.58;39.83;;;;;;;18.26;100.00;101454.66;5273254;28;20504;-67
2023/05/22 07:34:47;;;;;;;55.83;40.03;;;;;;;18.32;100.00;101451.34;5296879;28;20473;-67
2023/05/22 07:37:19;;;;;;;59.03;39.03;;;;;;;18.36;100.00;101442.06;5296516;28;20388;-67
2023/05/22 07:39:50;;;;;;;53.90;38.72;;;;;;;18.48;100.00;101448.66;5294290;28;20024;-67
2023/05/22 07:42:22;;;;;;;55.28;41.25;;;;;;;18.39;100.00;101447.03;5294690;28;20403;-66
2023/05/22 07:44:53;;;;;;;56.50;40.35;;;;;;;18.66;100.00;101453.81;5296984;28;20438;-67
2023/05/22 07:47:25;;;;;;;58.03;40.42;;;;;;;18.64;100.00;101455.81;5295347;28;20032;-66
2023/05/22 07:49:56;;;;;;;52.67;38.50;;;;;;;18.74;100.00;101453.81;5295025;28;20180;-67
2023/05/22 07:52:27;;;;;;;47.38;36.35;;;;;;;18.84;100.00;101454.47;5294792;28;20044;-66
2023/05/22 07:54:59;;;;;;;45.17;36.47;;;;;;;19.00;100.00;101453.59;5296549;28;20481;-67
2023/05/22 07:57:31;;;;;;;43.65;36.30;;;;;;;19.09;100.00;101465.88;5295804;28;20024;-66
2023/05/22 08:00:12;;;;;;;54.97;41.63;;;;;;;19.09;100.00;101460.56;5295622;28;20453;-67
2023/05/22 08:02:43;;;;;;;58.35;41.05;;;;;;;19.15;100.00;101467.81;5296202;28;20032;-67
2023/05/22 08:05:15;;;;;;;55.35;39.83;;;;;;;19.27;100.00;101470.09;5295650;28;20514;-67
2023/05/22 08:07:46;;;;;;;57.25;41.00;;;;;;;19.27;100.00;101472.75;5296071;28;20140;-67
2023/05/22 08:10:18;;;;;;;58.33;42.67;;;;;;;19.38;100.00;101475.03;5295173;28;20127;-67
2023/05/22 08:12:49;;;;;;;56.35;39.38;;;;;;;19.49;100.00;101465.88;5297456;28;20473;-66
2023/05/22 08:15:20;;;;;;;57.67;43.00;;;;;;;19.59;100.00;101466.50;5299063;28;20059;-67
2023/05/22 08:17:52;;;;;;;57.17;42.67;;;;;;;19.65;100.00;101466.63;5300359;28;20073;-67
2023/05/22 08:20:23;;;;;;;57.42;44.38;;;;;;;19.65;100.00;101458.66;5297305;28;20020;-67
2023/05/22 08:22:54;;;;;;;64.03;44.27;;;;;;;19.80;100.00;101457.91;5299853;28;20032;-67
2023/05/22 08:25:25;;;;;;;65.93;46.72;;;;;;;19.97;100.00;101461.31;5298654;28;20254;-67
2023/05/22 08:27:57;;;;;;;66.27;46.87;;;;;;;19.94;100.00;101457.16;5298666;28;20059;-67
2023/05/22 08:30:28;;;;;;;62.97;46.33;;;;;;;20.07;100.00;101456.56;5299948;28;20051;-66
2023/05/22 08:32:59;;;;;;;57.47;46.30;;;;;;;20.14;100.00;101457.53;5300013;28;20015;-67
2023/05/22 08:35:30;;;;;;;57.23;45.87;;;;;;;20.06;100.00;101463.72;5299895;28;20111;-66
2023/05/22 08:38:02;;;;;;;55.90;45.13;;;;;;;20.33;100.00;101461.53;5296301;28;20035;-66
2023/05/22 08:40:35;;;;;;;59.47;44.87;;;;;;;20.32;100.00;101458.03;5299186;28;20072;-67
2023/05/22 08:43:07;;;;;;;63.35;47.33;;;;;;;20.22;100.00;101459.28;5300037;28;20024;-67
2023/05/22 08:45:41;;;;;;;65.80;45.13;;;;;;;20.36;100.00;101464.66;5299120;28;20012;-67
2023/05/22 08:48:13;;;;;;;67.13;48.03;;;;;;;20.31;100.00;101468.88;5297331;28;20050;-67
2023/05/22 08:50:45;;;;;;;61.22;46.25;;;;;;;20.50;100.00;101460.41;5297499;28;20024;-67
2023/05/22 08:53:22;;;;;;;64.65;47.65;;;;;;;20.47;100.00;101459.91;5299930;28;20040;-67
2023/05/22 08:55:54;;;;;;;63.70;46.90;;;;;;;20.53;100.00;101457.41;5297736;28;20027;-67
2023/05/22 08:58:26;;;;;;;63.17;48.00;;;;;;;20.63;100.00;101462.44;5299154;28;20555;-67
2023/05/22 09:00:57;;;;;;;53.97;45.77;;;;;;;20.74;100.00;101461.19;5298261;28;20028;-67
2023/05/22 09:03:33;;;;;;;58.77;45.90;;;;;;;20.81;100.00;101451.47;5298845;28;20549;-67
2023/05/22 09:06:08;;;;;;;60.05;45.78;;;;;;;20.81;100.00;101454.94;5274031;28;20024;-67
2023/05/22 09:08:41;;;;;;;57.35;43.15;;;;;;;20.95;100.00;101460.44;5299188;28;20429;-67
2023/05/22 09:11:12;;;;;;;55.55;44.72;;;;;;;21.18;100.00;101452.41;5298048;28;20032;-67
2023/05/22 09:13:44;;;;;;;53.07;43.17;;;;;;;21.51;100.00;101460.81;5299522;28;20070;-67
2023/05/22 09:16:16;;;;;;;52.40;40.40;;;;;;;21.44;100.00;101459.91;5299010;28;20388;-67
2023/05/22 09:18:47;;;;;;;55.33;43.03;;;;;;;21.33;100.00;101454.06;5298082;28;20476;-67
2023/05/22 09:21:20;;;;;;;49.23;41.00;;;;;;;21.47;100.00;101462.19;5298134;28;20039;-67
2023/05/22 09:23:51;;;;;;;;;;;;;;;22.22;97.60;101466.31;5298716;28;20104;-67
2023/05/22 09:26:27;;;;;;;45.37;38.30;;;;;;;21.64;100.00;101460.16;5299180;28;20398;-67
2023/05/22 09:28:58;;;;;;;47.47;39.10;;;;;;;21.49;100.00;101460.19;5298407;28;20385;-67
2023/05/22 09:31:30;;;;;;;49.17;38.70;;;;;;;21.60;100.00;101462.38;5297401;28;20039;-67
2023/05/22 09:34:03;;;;;;;48.80;39.60;;;;;;;21.64;100.00;101458.31;5298859;28;20024;-67
2023/05/22 09:36:35;;;;;;;44.60;36.70;;;;;;;21.69;100.00;101458.56;5297022;28;20035;-67
2023/05/22 09:39:06;;;;;;;45.70;38.90;;;;;;;21.63;98.52;101454.00;5298856;28;20024;-67
2023/05/22 09:41:39;;;;;;;41.80;36.80;;;;;;;21.95;100.00;101455.34;5297974;28;20039;-67
2023/05/22 09:44:14;;;;;;;41.92;35.47;;;;;;;22.06;98.56;101460.19;5298724;28;20043;-67
2023/05/22 09:46:46;;;;;;;40.28;34.65;;;;;;;22.13;97.39;101451.44;5296781;28;20045;-67
2023/05/22 09:49:17;;;;;;;40.97;34.97;;;;;;;22.20;94.74;101452.31;5297112;28;20027;-67
2023/05/22 09:51:53;;;;;;;42.77;36.97;;;;;;;22.20;94.09;101449.66;5297309;28;20031;-67
2023/05/22 09:54:25;;;;;;;36.75;32.80;;;;;;;22.43;96.95;101444.13;5297677;28;20024;-68
2023/05/22 09:56:58;;;;;;;42.33;34.40;;;;;;;22.32;93.11;101448.97;5298095;28;20381;-67
2023/05/22 09:59:31;;;;;;;;;;;;;;;23.25;86.70;101443.38;5297846;28;20028;-67
2023/05/22 10:02:04;;;;;;;37.50;32.85;;;;;;;22.29;89.27;101440.50;5296215;28;20433;-68
2023/05/22 10:04:37;;;;;;;35.78;31.23;;;;;;;22.72;89.40;101443.88;5297376;28;20024;-67
2023/05/22 10:07:10;;;;;;;37.83;32.10;;;;;;;22.87;88.47;101443.78;5296826;28;20102;-67
2023/05/22 10:09:43;;;;;;;36.25;32.10;;;;;;;22.81;89.21;101447.25;5297164;28;20043;-66
2023/05/22 10:12:18;;;;;;;34.78;30.75;;;;;;;22.80;90.15;101445.59;5297656;28;20032;-66
2023/05/22 10:14:51;;;;;;;36.90;31.50;;;;;;;22.99;88.94;101452.91;5297680;28;20020;-67
2023/05/22 10:17:23;;;;;;;38.60;31.27;;;;;;;23.06;85.12;101442.28;5297022;28;20265;-67
2023/05/22 10:19:56;;;;;;;33.63;29.90;;;;;;;23.34;85.95;101442.22;5296140;28;20020;-67
2023/05/22 10:22:28;;;;;;;34.28;30.63;;;;;;;23.30;82.39;101436.44;5296187;28;20032;-67
2023/05/22 10:25:00;;;;;;;36.47;31.00;;;;;;;23.62;79.37;101450.13;5296493;28;20431;-67
2023/05/22 10:27:32;;;;;;;31.33;28.05;;;;;;;23.75;80.89;101444.00;5296729;28;20427;-67
2023/05/22 10:30:23;;;;;;;34.67;29.63;;;;;;;24.22;78.48;101434.19;5296063;28;20040;-67
2023/05/22 10:33:15;;;;;;;33.38;29.40;;;;;;;24.42;79.89;101431.53;5297182;28;20405;-67
2023/05/22 10:35:54;;;;;;;32.67;29.08;;;;;;;24.35;79.03;101436.03;5295503;28;20028;-67
2023/05/22 10:38:50;;;;;;;33.47;28.77;;;;;;;24.54;76.29;101435.22;5297195;28;20103;-67
2023/05/22 10:41:22;;;;;;;31.13;27.77;;;;;;;24.37;77.25;101423.25;5296333;28;20427;-67
2023/05/22 10:43:55;;;;;;;31.40;28.13;;;;;;;24.60;73.76;101429.03;5293638;28;20389;-68
2023/05/22 10:46:32;;;;;;;30.85;27.20;;;;;;;24.62;72.59;101426.13;5295424;28;20966;-67
2023/05/22 10:49:04;;;;;;;33.17;27.63;;;;;;;24.73;72.51;101428.16;5293778;28;20020;-68
2023/05/22 10:51:35;;;;;;;30.27;26.17;;;;;;;24.79;70.20;101419.31;5296338;28;20085;-67
2023/05/22 10:54:06;;;;;;;29.47;26.03;;;;;;;25.05;72.38;101413.03;5297485;28;20027;-67
2023/05/22 10:56:38;;;;;;;28.70;25.70;;;;;;;25.22;68.91;101419.59;5295720;28;20484;-67
2023/05/22 10:59:09;;;;;;;29.13;25.53;;;;;;;25.04;66.69;101418.59;5297293;28;20071;-67
2023/05/22 11:01:41;;;;;;;28.83;25.83;;;;;;;24.92;65.00;101421.09;5294715;28;20027;-67
2023/05/22 11:04:14;;;;;;;29.83;25.07;;;;;;;24.72;69.97;101421.16;5294736;28;20043;-67
2023/05/22 11:06:48;;;;;;;27.42;23.50;;;;;;;25.18;68.07;101410.31;5294074;28;20020;-67
2023/05/22 11:09:37;;;;;;;27.27;23.33;;;;;;;25.45;68.13;101408.31;5295664;28;20058;-67
2023/05/22 11:12:11;;;;;;;27.98;25.08;;;;;;;25.33;69.02;101406.53;5295689;28;20024;-67
2023/05/22 11:14:53;;;;;;;29.65;25.50;;;;;;;25.47;68.39;101410.81;5294632;28;20020;-67
2023/05/22 11:17:32;;;;;;;30.02;24.20;;;;;;;25.74;69.04;101411.47;5293673;28;20027;-67
2023/05/22 11:20:11;;;;;;;26.00;23.25;;;;;;;25.81;62.64;101409.59;5295850;28;20016;-67
2023/05/22 11:22:48;;;;;;;26.15;23.38;;;;;;;25.94;64.33;101408.66;5295714;28;20043;-68
2023/05/22 11:25:20;;;;;;;27.25;23.50;;;;;;;25.88;64.93;101413.06;5295510;28;20020;-68
2023/05/22 11:27:53;;;;;;;25.42;22.77;;;;;;;25.87;62.82;101407.88;5295862;28;20073;-68
2023/05/22 11:30:25;;;;;;;28.85;23.50;;;;;;;25.56;63.35;101409.50;5294167;28;20483;-68